Time;durP1;ratioP1;P1;durP2;ratioP2;P2;SDS_P1;SDS_P2;PMS_P1;PMS_P2;Temp;Humidity;BMP_temperature;BMP_pressure;BME280_temperature;BME280_humidity;BME280_pressure;Samples;Min_cycle;Max_cycle;Signal;HPM_P1;HPM_P2
2023/01/20 00:00:21;;;;;;;9.15;7.10;;;;;;;17.17;41.40;100920.56;5026409;28;20030;-62
2023/01/20 00:02:46;;;;;;;9.65;7.25;;;;;;;17.16;41.60;100919.72;5026212;28;20041;-60
2023/01/20 00:05:11;;;;;;;10.18;6.47;;;;;;;17.14;41.62;100915.50;5025675;28;20387;-62
2023/01/20 00:07:36;;;;;;;7.75;6.05;;;;;;;17.15;41.33;100925.25;5026465;28;20137;-60
2023/01/20 00:10:02;;;;;;;8.15;5.93;;;;;;;17.15;41.62;100920.72;5026049;28;20026;-62
2023/01/20 00:12:29;;;;;;;10.20;6.50;;;;;;;17.15;41.46;100925.25;5025964;28;20022;-62
2023/01/20 00:14:55;;;;;;;10.63;6.90;;;;;;;17.14;41.88;100926.25;5026198;28;20025;-62
2023/01/20 00:17:20;;;;;;;10.43;6.53;;;;;;;17.13;41.29;100922.72;5026199;28;20044;-62
2023/01/20 00:19:45;;;;;;;11.52;6.45;;;;;;;17.12;41.51;100917.50;5026048;28;20029;-62
2023/01/20 00:22:10;;;;;;;7.72;6.22;;;;;;;17.07;41.51;100920.66;5025672;28;20041;-62
2023/01/20 00:24:36;;;;;;;7.07;5.45;;;;;;;17.11;41.63;100924.72;5025684;28;20061;-62
2023/01/20 00:27:01;;;;;;;8.32;5.90;;;;;;;17.11;41.48;100930.06;5026113;28;20026;-61
2023/01/20 00:29:26;;;;;;;7.45;5.72;;;;;;;17.10;41.62;100935.63;5025964;28;20030;-62
2023/01/20 00:31:51;;;;;;;7.47;5.93;;;;;;;17.10;41.42;100932.94;5025922;28;20038;-61
2023/01/20 00:34:17;;;;;;;9.00;5.65;;;;;;;17.09;41.47;100939.31;5024381;28;20109;-60
2023/01/20 00:36:42;;;;;;;8.43;6.00;;;;;;;17.09;41.50;100937.47;5025930;28;20025;-61
2023/01/20 00:39:07;;;;;;;7.63;5.70;;;;;;;17.08;41.65;100933.09;5025750;28;20475;-61
2023/01/20 00:41:32;;;;;;;7.70;5.50;;;;;;;17.08;41.58;100945.69;5025539;28;20145;-62
2023/01/20 00:43:58;;;;;;;6.13;4.97;;;;;;;17.07;41.62;100950.19;5025675;28;20038;-61
2023/01/20 00:46:23;;;;;;;7.97;5.43;;;;;;;17.08;41.32;100953.75;5024974;28;20021;-61
2023/01/20 00:48:48;;;;;;;8.25;5.63;;;;;;;17.07;41.28;100957.41;5025574;28;20644;-62
2023/01/20 00:51:14;;;;;;;8.05;5.75;;;;;;;17.07;41.47;100954.72;5025468;28;20030;-62
2023/01/20 00:53:39;;;;;;;6.90;5.15;;;;;;;17.04;41.28;100955.06;5007697;28;20029;-61
2023/01/20 00:56:05;;;;;;;6.45;4.78;;;;;;;17.05;41.39;100962.94;5025451;28;20022;-61
2023/01/20 00:58:30;;;;;;;8.05;5.53;;;;;;;17.05;41.42;100967.47;5025752;28;20056;-61
2023/01/20 01:00:57;;;;;;;8.32;4.95;;;;;;;17.04;41.29;100965.81;5025353;28;20025;-61
2023/01/20 01:03:22;;;;;;;6.38;4.43;;;;;;;17.02;41.40;100965.94;5025411;28;20037;-61
2023/01/20 01:05:48;;;;;;;6.63;5.25;;;;;;;17.03;41.53;100973.00;5024423;28;20109;-61
2023/01/20 01:08:13;;;;;;;5.43;4.45;;;;;;;17.02;41.53;100965.09;5008177;28;20049;-62
2023/01/20 01:10:39;;;;;;;7.75;4.80;;;;;;;17.03;41.50;100974.84;5025305;28;20029;-61
2023/01/20 01:13:05;;;;;;;5.90;4.57;;;;;;;17.02;41.32;100976.69;5024977;28;20022;-61
2023/01/20 01:15:30;;;;;;;5.97;3.92;;;;;;;16.96;41.51;100970.09;5025133;28;20106;-61
2023/01/20 01:17:56;;;;;;;6.40;5.03;;;;;;;16.94;41.35;100979.28;5024984;28;20025;-61
2023/01/20 01:20:22;;;;;;;5.57;4.40;;;;;;;17.01;41.22;100990.28;5024699;28;20033;-61
2023/01/20 01:22:47;;;;;;;6.78;4.45;;;;;;;17.00;41.25;100989.44;5024713;28;20099;-60
2023/01/20 01:25:12;;;;;;;4.85;3.95;;;;;;;16.91;41.61;100977.78;5025007;28;20102;-60
2023/01/20 01:27:37;;;;;;;6.30;4.65;;;;;;;17.01;41.50;101001.03;5025209;28;20045;-61
2023/01/20 01:30:03;;;;;;;5.28;4.13;;;;;;;16.97;41.05;101000.47;5025065;28;20494;-61
2023/01/20 01:32:28;;;;;;;5.13;4.03;;;;;;;16.99;41.25;101002.03;5024749;28;20046;-61
2023/01/20 01:34:54;;;;;;;6.25;3.92;;;;;;;16.97;41.38;101009.38;5024100;28;20030;-61
2023/01/20 01:37:19;;;;;;;4.75;3.75;;;;;;;16.99;41.35;101019.97;5024736;28;20030;-61
2023/01/20 01:39:44;;;;;;;5.63;4.50;;;;;;;16.98;41.42;101012.91;5024052;28;20068;-61
2023/01/20 01:42:14;;;;;;;4.90;3.75;;;;;;;16.97;41.38;101017.44;5024948;28;20033;-61
2023/01/20 01:45:10;;;;;;;3.92;3.40;;;;;;;16.97;41.28;101021.97;5024518;28;20109;-61
2023/01/20 01:47:48;;;;;;;4.50;3.30;;;;;;;16.96;41.36;101020.28;5024488;28;20040;-61
2023/01/20 01:50:18;;;;;;;5.28;4.00;;;;;;;16.96;41.47;101031.03;5007205;28;20097;-61
2023/01/20 01:52:45;;;;;;;4.38;3.63;;;;;;;16.96;41.39;101025.66;5007236;28;20049;-61
2023/01/20 01:55:11;;;;;;;5.82;3.63;;;;;;;16.96;41.24;101025.66;5007128;28;20576;-61
2023/01/20 01:57:37;;;;;;;4.22;3.40;;;;;;;16.95;41.32;101026.66;5024639;28;20034;-61
2023/01/20 02:00:06;;;;;;;4.93;4.30;;;;;;;16.91;41.43;101019.91;5024379;28;20037;-61
2023/01/20 02:02:32;;;;;;;5.05;3.42;;;;;;;16.94;41.31;101024.94;5024720;28;20032;-60
2023/01/20 02:04:57;;;;;;;5.25;3.55;;;;;;;16.93;41.33;101034.84;5023700;28;20058;-61
2023/01/20 02:07:22;;;;;;;5.03;3.00;;;;;;;16.93;41.31;101028.63;5024745;28;20022;-61
2023/01/20 02:09:47;;;;;;;5.47;3.33;;;;;;;16.93;41.22;101029.47;5006672;28;20486;-61
2023/01/20 02:12:15;;;;;;;4.05;3.60;;;;;;;16.93;41.38;101034.00;5024839;28;20097;-61
2023/01/20 02:14:46;;;;;;;4.20;3.42;;;;;;;16.93;41.45;101032.16;5006948;28;20028;-61
2023/01/20 02:17:15;;;;;;;4.20;3.25;;;;;;;16.92;41.49;101033.16;5006882;28;20527;-61
2023/01/20 02:20:08;;;;;;;3.60;3.25;;;;;;;16.91;41.43;101031.50;5023979;28;20101;-61
2023/01/20 02:22:39;;;;;;;5.22;3.58;;;;;;;16.91;41.17;101033.34;5024407;28;20029;-60
2023/01/20 02:25:34;;;;;;;5.03;3.55;;;;;;;16.89;41.42;101036.16;5006907;28;20041;-61
2023/01/20 02:28:08;;;;;;;3.75;2.80;;;;;;;16.89;41.28;101033.47;5018729;28;20061;-61
2023/01/20 02:31:11;;;;;;;4.85;3.47;;;;;;;16.88;41.33;101034.47;5024073;28;20022;-60
2023/01/20 02:33:45;;;;;;;4.20;3.20;;;;;;;16.89;41.31;101032.63;5024202;28;20055;-60
2023/01/20 02:36:14;;;;;;;3.10;2.70;;;;;;;16.88;41.60;101034.47;5023841;28;20029;-61
2023/01/20 02:38:48;;;;;;;;;;;;;;;16.87;41.36;101038.16;5007177;28;20026;-61
2023/01/20 02:41:21;;;;;;;3.58;2.95;;;;;;;16.84;41.38;101034.94;5024000;28;19921;-61
2023/01/20 02:43:51;;;;;;;4.00;3.22;;;;;;;16.86;41.31;101040.97;5024180;28;20505;-61
2023/01/20 02:46:31;;;;;;;5.15;3.53;;;;;;;16.86;41.49;101040.97;4996450;28;20050;-61
2023/01/20 02:49:11;;;;;;;3.53;3.13;;;;;;;16.84;41.36;101034.94;4987751;28;20022;-61
2023/01/20 02:51:55;;;;;;;4.32;3.13;;;;;;;16.85;41.24;101040.13;5004535;28;20053;-61
2023/01/20 02:54:20;;;;;;;3.40;2.90;;;;;;;16.80;41.40;101034.38;5004257;28;20050;-57
2023/01/20 02:56:47;;;;;;;3.95;2.80;;;;;;;16.84;41.34;101032.25;4987503;28;20558;-61
2023/01/20 02:59:15;;;;;;;4.78;2.90;;;;;;;16.85;41.43;101039.28;4990582;28;20030;-60
2023/01/20 03:01:49;;;;;;;4.57;3.15;;;;;;;16.84;41.52;101041.16;5010289;28;20089;-61
2023/01/20 03:04:18;;;;;;;4.95;3.75;;;;;;;16.85;41.37;101050.03;5009417;28;20030;-59
2023/01/20 03:06:48;;;;;;;3.72;2.67;;;;;;;16.84;41.37;101051.03;5010069;28;20029;-61
2023/01/20 03:09:17;;;;;;;3.92;2.90;;;;;;;16.83;41.52;101050.19;5009762;28;20040;-59
2023/01/20 03:11:49;;;;;;;4.40;3.28;;;;;;;16.82;41.37;101056.56;4992559;28;20120;-61
2023/01/20 03:14:14;;;;;;;3.42;3.03;;;;;;;16.83;41.45;101058.25;5027588;28;20110;-61
2023/01/20 03:16:40;;;;;;;3.78;3.13;;;;;;;16.82;41.48;101059.25;5009171;28;20589;-61
2023/01/20 03:19:06;;;;;;;3.28;2.60;;;;;;;16.79;41.42;101048.81;5009895;28;20045;-57
2023/01/20 03:21:32;;;;;;;3.58;2.85;;;;;;;16.82;41.39;101053.88;5027202;28;20030;-61
2023/01/20 03:24:00;;;;;;;4.13;3.10;;;;;;;16.82;41.21;101061.94;5027064;28;20047;-61
2023/01/20 03:26:25;;;;;;;4.65;3.00;;;;;;;16.82;41.45;101055.72;5026928;28;20093;-61
2023/01/20 03:28:51;;;;;;;3.72;3.03;;;;;;;16.79;41.32;101046.13;5027095;28;20030;-61
2023/01/20 03:31:28;;;;;;;3.20;2.80;;;;;;;16.79;41.26;101045.28;5009083;28;20479;-61
2023/01/20 03:33:56;;;;;;;4.22;3.30;;;;;;;16.81;41.39;101052.19;5009001;28;20036;-61
2023/01/20 03:36:24;;;;;;;3.42;2.90;;;;;;;16.74;41.36;101040.38;5009238;28;20065;-61
2023/01/20 03:38:49;;;;;;;2.75;2.47;;;;;;;16.80;41.28;101046.97;5009406;28;20037;-61
2023/01/20 03:41:33;;;;;;;3.22;2.80;;;;;;;16.80;41.29;101055.03;5008972;28;20046;-60
2023/01/20 03:44:18;;;;;;;3.42;3.13;;;;;;;16.80;41.26;101055.03;5026652;28;20026;-61
2023/01/20 03:46:57;;;;;;;3.53;2.72;;;;;;;16.79;41.38;101053.34;5009280;28;20026;-61
2023/01/20 03:49:25;;;;;;;;;;;;;;;16.78;41.21;101051.63;5009463;28;20034;-61
2023/01/20 03:52:01;;;;;;;3.80;3.40;;;;;;;16.78;41.29;101051.63;5009378;28;19910;-61
2023/01/20 03:54:33;;;;;;;3.15;2.78;;;;;;;16.76;41.34;101051.78;5026506;28;20040;-60
2023/01/20 03:57:03;;;;;;;3.60;2.88;;;;;;;16.76;41.38;101053.63;5009394;28;20038;-61
2023/01/20 03:59:31;;;;;;;3.30;3.00;;;;;;;16.75;41.38;101047.44;5008453;28;20549;-60
2023/01/20 04:02:01;;;;;;;3.28;2.70;;;;;;;16.75;41.42;101055.47;5008786;28;20025;-61
2023/01/20 04:04:28;;;;;;;3.20;2.70;;;;;;;16.75;41.38;101066.22;5025562;28;20026;-61
2023/01/20 04:06:54;;;;;;;3.15;2.70;;;;;;;16.68;41.51;101051.66;5009103;28;20026;-60
2023/01/20 04:09:23;;;;;;;3.17;2.85;;;;;;;16.76;41.44;101064.38;4991487;28;20029;-60
2023/01/20 04:11:49;;;;;;;3.63;2.85;;;;;;;16.74;41.51;101067.22;5008777;28;20017;-60
2023/01/20 04:14:15;;;;;;;3.85;3.33;;;;;;;16.74;41.39;101073.44;5026284;28;20045;-60
2023/01/20 04:16:40;;;;;;;3.45;2.80;;;;;;;16.74;41.28;101073.44;5008311;28;20033;-61
2023/01/20 04:19:05;;;;;;;3.03;2.60;;;;;;;16.73;41.39;101069.03;5008783;28;20021;-60
2023/01/20 04:21:37;;;;;;;4.35;2.97;;;;;;;16.66;41.43;101064.41;5026099;28;20030;-60
2023/01/20 04:24:19;;;;;;;4.32;3.40;;;;;;;16.73;41.30;101070.88;5008804;28;20022;-60
2023/01/20 04:26:45;;;;;;;3.13;2.60;;;;;;;16.71;41.71;101071.00;5026323;28;20022;-61
2023/01/20 04:29:10;;;;;;;4.28;3.40;;;;;;;16.68;41.29;101067.78;5023959;28;20084;-59
2023/01/20 04:31:35;;;;;;;3.17;2.80;;;;;;;16.72;41.43;101079.91;5006374;28;20026;-61
2023/01/20 04:34:01;;;;;;;2.40;2.20;;;;;;;16.71;41.38;101081.75;5015604;28;20065;-60
2023/01/20 04:36:27;;;;;;;3.65;2.97;;;;;;;16.69;41.40;101070.34;5007774;28;20029;-61
2023/01/20 04:38:52;;;;;;;5.15;2.75;;;;;;;16.71;41.40;101087.13;5025877;28;20040;-61
2023/01/20 04:41:18;;;;;;;2.90;2.67;;;;;;;16.70;41.51;101088.13;5025567;28;20105;-60
2023/01/20 04:43:44;;;;;;;3.25;2.80;;;;;;;16.71;41.42;101095.19;5025918;28;20038;-60
2023/01/20 04:46:10;;;;;;;3.33;2.90;;;;;;;16.71;41.37;101095.19;5025516;28;20034;-60
2023/01/20 04:48:36;;;;;;;3.40;3.00;;;;;;;16.71;41.33;101094.34;5025764;28;20096;-60
2023/01/20 04:51:05;;;;;;;3.17;2.75;;;;;;;16.70;41.30;101096.19;5025528;28;20045;-62
2023/01/20 04:53:30;;;;;;;4.63;2.92;;;;;;;16.70;41.31;101098.03;5025794;28;20052;-62
2023/01/20 04:55:56;;;;;;;3.15;2.67;;;;;;;16.70;41.11;101085.44;5025406;28;20033;-60
2023/01/20 04:58:21;;;;;;;3.13;2.83;;;;;;;16.70;41.27;101089.97;5025800;28;20060;-60
2023/01/20 05:00:46;;;;;;;3.42;3.03;;;;;;;16.70;41.26;101093.50;5025575;28;20037;-61
2023/01/20 05:03:11;;;;;;;4.25;3.13;;;;;;;16.70;41.31;101092.66;5025167;28;20475;-60
2023/01/20 05:05:36;;;;;;;3.50;3.00;;;;;;;16.70;41.25;101090.81;5024872;28;20096;-61
2023/01/20 05:08:03;;;;;;;3.40;2.85;;;;;;;16.70;41.27;101088.13;5025185;28;20034;-61
2023/01/20 05:10:30;;;;;;;3.25;2.72;;;;;;;16.70;41.29;101092.66;5020061;28;20030;-60
2023/01/20 05:12:56;;;;;;;3.65;2.63;;;;;;;16.69;41.17;101097.19;5025028;28;20029;-60
2023/01/20 05:15:21;;;;;;;3.78;2.90;;;;;;;16.69;41.27;101094.50;5025153;28;20037;-60
2023/01/20 05:17:46;;;;;;;3.85;3.00;;;;;;;16.63;41.14;101088.84;5025268;28;20057;-61
2023/01/20 05:20:13;;;;;;;3.33;2.75;;;;;;;16.70;41.44;101103.38;5024754;28;20052;-62
2023/01/20 05:22:38;;;;;;;4.07;3.35;;;;;;;16.66;41.20;101097.47;5025044;28;20471;-60
2023/01/20 05:25:04;;;;;;;4.63;3.60;;;;;;;16.68;41.12;101106.19;5025115;28;20110;-60
2023/01/20 05:27:29;;;;;;;3.97;2.92;;;;;;;16.69;41.33;101102.53;5025413;28;20030;-63
2023/01/20 05:29:55;;;;;;;4.57;3.38;;;;;;;16.70;41.30;101103.38;5025107;28;20041;-60
2023/01/20 05:32:20;;;;;;;3.70;3.30;;;;;;;16.65;41.29;101098.47;5025054;28;20026;-60
2023/01/20 05:34:45;;;;;;;4.05;3.13;;;;;;;16.62;41.54;101092.56;5024168;28;20029;-60
2023/01/20 05:37:10;;;;;;;4.28;3.20;;;;;;;16.69;41.48;101101.66;5024521;28;20053;-60
2023/01/20 05:39:36;;;;;;;3.67;3.08;;;;;;;16.70;41.70;101106.06;5024149;28;20777;-61
2023/01/20 05:42:01;;;;;;;6.28;3.72;;;;;;;16.69;41.51;101110.59;5024570;28;20030;-60
2023/01/20 05:44:26;;;;;;;4.20;3.50;;;;;;;16.70;41.71;101106.06;5024567;28;20036;-60
2023/01/20 05:46:52;;;;;;;4.07;3.35;;;;;;;16.67;41.74;101109.03;5024615;28;20022;-60
2023/01/20 05:49:17;;;;;;;5.38;3.40;;;;;;;16.72;41.64;101112.13;5024326;28;20098;-57
2023/01/20 05:51:42;;;;;;;4.97;3.80;;;;;;;16.70;42.15;101112.28;5024382;28;20033;-60
2023/01/20 05:54:07;;;;;;;6.43;3.83;;;;;;;16.73;42.28;101116.53;5024628;28;20481;-60
2023/01/20 05:56:33;;;;;;;5.88;3.90;;;;;;;16.73;42.36;101113.84;5024823;28;20129;-61
2023/01/20 05:58:58;;;;;;;5.32;4.07;;;;;;;16.74;42.44;101120.91;5024055;28;20049;-60
2023/01/20 06:01:23;;;;;;;4.97;3.90;;;;;;;16.75;42.36;101119.91;5024103;28;20041;-60
2023/01/20 06:03:49;;;;;;;7.15;4.32;;;;;;;16.75;42.68;101125.28;5023859;28;20029;-58
2023/01/20 06:06:16;;;;;;;5.60;4.43;;;;;;;16.76;42.68;101118.06;5022990;28;20117;-60
2023/01/20 06:08:41;;;;;;;5.63;4.40;;;;;;;16.77;42.72;101117.06;5021916;28;20025;-57
2023/01/20 06:11:07;;;;;;;5.80;4.60;;;;;;;16.76;42.70;101115.38;5024425;28;20036;-62
2023/01/20 06:13:34;;;;;;;6.03;4.03;;;;;;;16.76;42.70;101116.22;5023736;28;20052;-62
2023/01/20 06:15:59;;;;;;;6.57;4.78;;;;;;;16.75;42.48;101122.59;5023778;28;20022;-60
2023/01/20 06:18:25;;;;;;;6.32;4.07;;;;;;;16.73;42.76;101119.22;5023237;28;20567;-62
2023/01/20 06:20:50;;;;;;;6.10;4.72;;;;;;;16.79;42.88;101131.22;5022056;28;20029;-60
2023/01/20 06:23:16;;;;;;;6.28;4.05;;;;;;;16.78;43.01;101135.75;5023867;28;20036;-59
2023/01/20 06:25:41;;;;;;;6.03;4.55;;;;;;;16.79;42.80;101133.91;5006331;28;20042;-60
2023/01/20 06:28:07;;;;;;;5.95;4.55;;;;;;;16.80;42.99;101135.59;5024043;28;20029;-60
2023/01/20 06:30:32;;;;;;;7.28;4.65;;;;;;;16.76;42.79;101132.34;5023627;28;20055;-60
2023/01/20 06:32:58;;;;;;;5.32;4.57;;;;;;;16.78;42.82;101135.75;5025177;28;20040;-58
2023/01/20 06:35:23;;;;;;;6.18;4.38;;;;;;;16.79;42.82;101133.91;5025882;28;20504;-60
2023/01/20 06:37:49;;;;;;;9.90;5.00;;;;;;;16.79;42.84;101136.59;5027500;28;20029;-60
2023/01/20 06:40:14;;;;;;;5.70;4.57;;;;;;;16.78;42.75;101141.13;5027412;28;20076;-61
2023/01/20 06:42:40;;;;;;;4.90;3.85;;;;;;;16.80;42.84;101144.47;5027682;28;20497;-51
2023/01/20 06:45:06;;;;;;;5.72;4.82;;;;;;;16.80;42.97;101147.16;5027655;28;20041;-60
2023/01/20 06:47:49;;;;;;;7.00;4.95;;;;;;;16.81;42.97;101154.22;4981350;28;20050;-61
2023/01/20 06:50:15;;;;;;;7.00;4.73;;;;;;;16.81;42.98;101156.06;5027623;28;20032;-61
2023/01/20 06:52:41;;;;;;;5.65;4.75;;;;;;;16.81;42.96;101156.06;5009618;28;20030;-60
2023/01/20 06:55:06;;;;;;;6.07;4.82;;;;;;;16.80;43.00;101149.84;5027197;28;20053;-60
2023/01/20 06:57:32;;;;;;;7.75;5.93;;;;;;;16.82;42.96;101152.38;5027169;28;20026;-60
2023/01/20 06:59:58;;;;;;;7.65;5.00;;;;;;;16.80;42.95;101157.06;5027210;28;20021;-61
2023/01/20 07:02:23;;;;;;;6.25;4.82;;;;;;;16.81;42.75;101153.38;5027492;28;20037;-61
2023/01/20 07:04:50;;;;;;;6.03;5.13;;;;;;;16.81;42.99;101156.06;5026410;28;20048;-60
2023/01/20 07:07:16;;;;;;;6.68;4.85;;;;;;;16.79;42.90;101158.91;5027173;28;20501;-61
2023/01/20 07:09:41;;;;;;;6.93;5.03;;;;;;;16.81;42.85;101166.81;5026809;28;20033;-60
2023/01/20 07:12:06;;;;;;;7.40;5.68;;;;;;;16.80;42.67;101171.34;5027519;28;20053;-60
2023/01/20 07:14:31;;;;;;;7.80;5.10;;;;;;;16.81;42.74;101175.69;5026746;28;20032;-60
2023/01/20 07:16:57;;;;;;;7.00;4.97;;;;;;;16.82;42.78;101171.16;5027101;28;20045;-61
2023/01/20 07:19:22;;;;;;;7.88;5.47;;;;;;;16.81;42.77;101174.84;5026279;28;20085;-54
2023/01/20 07:21:47;;;;;;;7.85;5.88;;;;;;;16.80;42.67;101179.38;5024147;28;20029;-60
2023/01/20 07:24:12;;;;;;;6.95;5.25;;;;;;;16.82;42.78;101181.91;5026848;28;20057;-60
2023/01/20 07:26:38;;;;;;;8.07;5.82;;;;;;;16.85;42.74;101187.84;5026400;28;20034;-61
2023/01/20 07:29:03;;;;;;;6.25;4.95;;;;;;;16.86;42.47;101191.38;5026561;28;20026;-60
2023/01/20 07:31:30;;;;;;;7.07;5.50;;;;;;;16.83;42.54;101191.69;5026919;28;20018;-60
2023/01/20 07:33:55;;;;;;;10.05;6.00;;;;;;;16.88;42.44;101202.81;5026758;28;20032;-61
2023/01/20 07:36:21;;;;;;;7.15;5.47;;;;;;;16.89;42.33;101210.72;5026401;28;20025;-61
2023/01/20 07:38:48;;;;;;;6.47;4.78;;;;;;;16.92;42.41;101212.28;5026503;28;20406;-61
2023/01/20 07:41:18;;;;;;;8.57;5.82;;;;;;;16.91;42.48;101213.28;5026459;28;20054;-61
2023/01/20 07:43:44;;;;;;;8.18;4.90;;;;;;;16.91;42.40;101216.81;5008832;28;20041;-61
2023/01/20 07:46:10;;;;;;;8.35;6.00;;;;;;;16.94;42.30;101221.03;5026520;28;20037;-61
2023/01/20 07:48:35;;;;;;;6.85;5.47;;;;;;;16.94;42.20;101221.03;5023947;28;20026;-61
2023/01/20 07:51:04;;;;;;;7.32;5.57;;;;;;;16.94;42.17;101221.03;5000352;28;20471;-61
2023/01/20 07:53:31;;;;;;;7.15;5.32;;;;;;;16.92;42.15;101231.06;5026536;28;20455;-60
2023/01/20 07:55:59;;;;;;;8.93;5.70;;;;;;;16.91;42.19;101229.41;5023841;28;20026;-61
2023/01/20 07:58:25;;;;;;;7.25;5.22;;;;;;;16.90;42.19;101228.53;5026279;28;20094;-61
2023/01/20 08:00:50;;;;;;;7.72;5.50;;;;;;;16.96;42.19;101237.84;5026306;28;20026;-61
2023/01/20 08:03:15;;;;;;;9.70;6.22;;;;;;;16.94;42.14;101243.34;5026076;28;20022;-60
2023/01/20 08:05:41;;;;;;;7.75;5.50;;;;;;;16.95;42.03;101242.38;5025598;28;20479;-60
2023/01/20 08:08:06;;;;;;;7.53;5.65;;;;;;;16.94;42.08;101246.03;5026021;28;20042;-61
2023/01/20 08:10:31;;;;;;;6.47;5.22;;;;;;;16.95;42.15;101245.06;5026068;28;20045;-60
2023/01/20 08:12:56;;;;;;;8.98;5.78;;;;;;;16.96;42.04;101243.22;5026084;28;20022;-60
2023/01/20 08:15:22;;;;;;;7.40;5.57;;;;;;;16.94;42.01;101237.13;5026032;28;20014;-61
2023/01/20 08:17:52;;;;;;;7.72;5.32;;;;;;;16.94;42.04;101246.03;5025920;28;20033;-61
2023/01/20 08:20:17;;;;;;;8.10;5.93;;;;;;;16.95;41.85;101245.06;5025476;28;20022;-60
2023/01/20 08:22:42;;;;;;;6.78;5.22;;;;;;;16.96;42.00;101252.13;5024375;28;20029;-61
2023/01/20 08:25:08;;;;;;;6.72;5.95;;;;;;;16.94;41.85;101256.78;5025700;28;20113;-61
2023/01/20 08:27:33;;;;;;;6.10;4.88;;;;;;;16.96;41.91;101253.97;5025595;28;20029;-60
2023/01/20 08:29:58;;;;;;;6.43;5.28;;;;;;;16.98;41.76;101258.19;5025548;28;20029;-61
2023/01/20 08:32:23;;;;;;;6.65;5.40;;;;;;;16.99;42.11;101259.91;5025614;28;20028;-61
2023/01/20 08:34:49;;;;;;;7.97;5.53;;;;;;;17.00;41.96;101258.06;5024857;28;20026;-57
2023/01/20 08:37:14;;;;;;;6.28;5.35;;;;;;;16.99;41.80;101276.00;5026060;28;20022;-61
2023/01/20 08:39:39;;;;;;;5.90;5.28;;;;;;;16.99;41.79;101259.03;5025512;28;20053;-61
2023/01/20 08:42:04;;;;;;;6.32;5.50;;;;;;;16.98;41.70;101263.53;5026023;28;20479;-61
2023/01/20 08:44:30;;;;;;;6.72;4.75;;;;;;;16.97;41.72;101264.56;5025925;28;20109;-61
2023/01/20 08:46:58;;;;;;;6.30;4.88;;;;;;;17.00;41.51;101263.41;5025511;28;20029;-60
2023/01/20 08:49:24;;;;;;;6.32;5.03;;;;;;;16.99;41.46;101264.38;5025790;28;20026;-61
2023/01/20 08:51:49;;;;;;;6.22;4.82;;;;;;;17.01;41.44;101266.94;5025329;28;20036;-61
2023/01/20 08:54:15;;;;;;;6.63;5.20;;;;;;;16.99;41.37;101281.38;5025647;28;20022;-61
2023/01/20 08:56:40;;;;;;;8.13;5.88;;;;;;;16.91;41.35;101270.53;5025044;28;20033;-54
2023/01/20 08:59:06;;;;;;;6.57;5.82;;;;;;;16.91;41.35;101270.53;5025203;28;20025;-53
2023/01/20 09:01:35;;;;;;;5.85;4.75;;;;;;;16.98;41.24;101279.66;5010466;28;20100;-52
2023/01/20 09:04:00;;;;;;;7.57;5.40;;;;;;;17.01;41.40;101278.53;5018541;28;20021;-55
2023/01/20 09:06:26;;;;;;;6.38;5.35;;;;;;;17.03;41.20;101281.06;5021058;28;20049;-54
2023/01/20 09:08:52;;;;;;;8.85;5.20;;;;;;;16.98;41.37;101274.28;5019059;28;20030;-54
2023/01/20 09:11:21;;;;;;;7.60;5.32;;;;;;;17.03;41.36;101283.75;5023904;28;20032;-56
2023/01/20 09:13:46;;;;;;;7.55;5.53;;;;;;;17.04;41.39;101291.69;5023101;28;20029;-55
2023/01/20 09:16:14;;;;;;;7.10;5.72;;;;;;;17.04;41.23;101291.69;4999217;28;20117;-53
2023/01/20 09:18:39;;;;;;;7.60;5.95;;;;;;;17.05;41.38;101297.91;5017808;28;20038;-54
2023/01/20 09:21:08;;;;;;;6.38;5.20;;;;;;;17.04;41.27;101297.06;5018282;28;20030;-50
2023/01/20 09:23:34;;;;;;;8.18;5.68;;;;;;;17.04;41.26;101305.13;5017794;28;20049;-52
2023/01/20 09:26:00;;;;;;;7.20;5.60;;;;;;;17.04;41.40;101315.03;5020246;28;20041;-55
2023/01/20 09:28:25;;;;;;;7.55;4.90;;;;;;;17.03;41.41;101306.09;5021496;28;20026;-52
2023/01/20 09:30:59;;;;;;;6.75;5.20;;;;;;;17.03;41.35;101311.47;5024122;28;20092;-52
2023/01/20 09:33:25;;;;;;;6.97;5.25;;;;;;;17.06;41.31;101313.84;5021308;28;20113;-53
2023/01/20 09:35:57;;;;;;;6.50;4.90;;;;;;;17.00;41.30;101314.47;5015471;28;20021;-56
2023/01/20 09:44:36;;;;;;;7.15;5.78;;;;;;;17.06;41.14;101315.69;5018498;28;20080;-53
2023/01/20 09:47:19;;;;;;;7.95;6.45;;;;;;;17.06;41.39;101326.44;5016206;28;20046;-56
2023/01/20 09:55:39;;;;;;;7.55;5.72;;;;;;;17.04;41.06;101331.13;5021944;28;20024;-51
2023/01/20 09:58:23;;;;;;;6.13;5.20;;;;;;;17.04;41.46;101331.97;4992842;28;20021;-55
2023/01/20 10:00:54;;;;;;;7.78;5.82;;;;;;;17.04;41.21;101334.66;5013094;28;20038;-52
2023/01/20 10:03:38;;;;;;;8.55;5.00;;;;;;;17.04;41.46;101337.34;5019982;28;20025;-52
2023/01/20 10:06:10;;;;;;;6.18;5.00;;;;;;;17.08;41.45;101337.91;5014827;28;20037;-55
2023/01/20 10:08:57;;;;;;;7.07;5.80;;;;;;;17.09;41.71;101344.97;5007314;28;20053;-49
2023/01/20 10:11:23;;;;;;;7.45;5.28;;;;;;;17.06;41.61;101343.41;5010569;28;20030;-53
2023/01/20 10:13:54;;;;;;;7.40;5.68;;;;;;;17.02;41.81;101342.00;4994242;28;20053;-61
2023/01/20 10:16:31;;;;;;;8.57;5.40;;;;;;;17.08;41.76;101348.66;5021982;28;20014;-54
2023/01/20 10:19:00;;;;;;;8.63;5.72;;;;;;;17.08;41.85;101345.97;5005135;28;20037;-54
2023/01/20 10:21:35;;;;;;;10.35;6.30;;;;;;;17.07;41.84;101338.88;5009845;28;20036;-56
2023/01/20 10:24:09;;;;;;;6.78;5.45;;;;;;;17.09;41.66;101342.28;5007997;28;20077;-54
2023/01/20 10:27:01;;;;;;;7.05;5.40;;;;;;;17.10;41.58;101343.97;5016718;28;20022;-56
2023/01/20 10:29:38;;;;;;;7.28;5.45;;;;;;;17.08;41.50;101345.97;5027618;28;20048;-53
2023/01/20 10:32:20;;;;;;;8.27;5.43;;;;;;;17.07;41.59;101342.41;5013304;28;20049;-55
2023/01/20 10:34:46;;;;;;;6.63;5.50;;;;;;;17.07;41.63;101346.94;5026467;28;20029;-50
2023/01/20 10:37:14;;;;;;;6.30;5.40;;;;;;;17.04;41.36;101342.72;5027452;28;20034;-56
2023/01/20 10:40:08;;;;;;;8.15;5.78;;;;;;;17.07;41.52;101358.53;5025202;28;20034;-52
2023/01/20 10:42:34;;;;;;;9.85;6.20;;;;;;;17.07;41.33;101355.84;5009632;28;20048;-55
2023/01/20 10:44:59;;;;;;;6.57;5.25;;;;;;;17.09;41.39;101361.09;5027196;28;20033;-60
2023/01/20 10:47:49;;;;;;;6.50;5.45;;;;;;;17.10;41.37;101363.63;5027443;28;20033;-60
2023/01/20 10:50:21;;;;;;;6.15;5.10;;;;;;;17.07;41.47;101358.53;5026969;28;20018;-60
2023/01/20 10:52:52;;;;;;;7.22;5.22;;;;;;;17.11;41.15;101356.41;5009701;28;20018;-59
2023/01/20 10:55:34;;;;;;;6.82;5.13;;;;;;;17.12;41.36;101361.66;5027402;28;20064;-61
2023/01/20 10:58:22;;;;;;;8.27;5.85;;;;;;;17.12;41.14;101363.47;5009044;28;20406;-53
2023/01/20 11:00:48;;;;;;;7.15;5.55;;;;;;;17.09;41.31;101350.34;5026808;28;20026;-52
2023/01/20 11:03:18;;;;;;;7.22;5.43;;;;;;;17.11;41.33;101359.94;4993593;28;20033;-53
2023/01/20 11:05:43;;;;;;;;;;;;;;;17.10;41.58;101355.56;5009050;28;20336;-55
2023/01/20 11:08:28;;;;;;;7.40;5.68;;;;;;;17.11;41.36;101361.78;5009252;28;19913;-50
2023/01/20 11:10:56;;;;;;;8.50;5.82;;;;;;;17.10;41.37;101362.78;5008314;28;20078;-52
2023/01/20 11:13:22;;;;;;;8.18;5.43;;;;;;;17.07;41.33;101358.53;5009473;28;20029;-57
2023/01/20 11:15:50;;;;;;;7.20;5.32;;;;;;;17.07;41.34;101365.75;5026762;28;20029;-51
2023/01/20 11:18:16;;;;;;;7.50;5.90;;;;;;;17.08;41.45;101367.47;5026440;28;20022;-52
2023/01/20 11:20:45;;;;;;;7.32;5.72;;;;;;;17.03;41.32;101361.66;5026362;28;20064;-56
2023/01/20 11:23:29;;;;;;;;;;;;;;;17.09;41.51;101369.16;5027235;28;20397;-56
2023/01/20 11:25:59;;;;;;;7.25;5.55;;;;;;;17.07;41.37;101371.13;5026775;28;19987;-54
2023/01/20 11:28:25;;;;;;;7.10;5.43;;;;;;;17.05;41.28;101368.59;5009169;28;20014;-56
2023/01/20 11:30:53;;;;;;;8.40;5.43;;;;;;;17.06;41.41;101370.28;5026403;28;20094;-55
2023/01/20 11:33:24;;;;;;;9.88;6.03;;;;;;;17.07;41.45;101373.81;5008502;28;20021;-53
2023/01/20 11:35:59;;;;;;;6.97;5.45;;;;;;;17.07;41.53;101374.66;5025675;28;20026;-61
2023/01/20 11:38:47;;;;;;;7.75;5.82;;;;;;;17.05;41.52;101363.22;5025892;28;20036;-61
2023/01/20 11:41:19;;;;;;;6.63;5.30;;;;;;;17.12;41.64;101375.09;5023918;28;20057;-62
2023/01/20 11:43:44;;;;;;;7.47;5.43;;;;;;;17.06;41.39;101362.22;5024876;28;20033;-61